Hlavní strana
METAR-TAF:

METAR-TAF

Letiště :

Cartagena, Kolumbie

zeměpisná šířka: 10-27N, zeměpisná délka: 075-31W, výška: 1 m

Aktuální stav počasí

Zpráva byla vytvořena před 58 minutami, v 10:00 UTC
Severovýchodní vítr 4 kt
Teplota 26°C
Vlhkost vzduchu 89%
Tlak 1011 hPa
Viditelnost 10 km a více
Polojasno ve výšce 1500 ft

METAR: SKCG 241000Z 05004KT 9999 SCT015 26/24 A2985

Čas: 05:58 (10:58 UTC)

Předpověď počasí

Zpráva byla vytvořena před 6 hodinami a 28 minutami, v 04:30 UTC
Předpověď platná od 24 v 06 UTC do 25 v 06 UTC
Severoseverovýchodní vítr 4 kt
Viditelnost 10 km a více
Skoro jasno ve výšce 1700 ft
Polojasno ve výšce 10000 ft
Pravděpodobnost 40% :
Dočasný
od 24 v 10 UTC do 24 v 12 UTC
Viditelnost: 6000 m
Polojasno ve výšce 1000 ft
mlha v blízkosti
Změna
od 24 v 15 UTC do 24 v 17 UTC
Severoseverozápadní vítr 12 kt

TAF: SKCG 240430Z 2406/2506 020004KT 9999 FEW017 SCT100 PROB40 TEMPO 2410/2412 6000 VCFG SCT010 BECMG 2415/2417 33012KT TX32/2418Z TN24/2411Z

Stav a předpovědi počasí z více než 4 000 letišť (zprávy METAR a TAF).

Červené a žluté tečky na mapě představují dostupné meteorologické stanice.

Když kurzor umístíte na tečku, zobrazí se název stanice.

Pak kliknutím zobrazíte stav a předpověď počasí.

Chcete-li změnit mapu, kliknutím na zelené tlačítko se znaménkem +mapu přiblížíte, kliknutím na zelené tlačítko se znaménkem – mapu oddálíte a kliknutím na zelené šipky přejdete na sousední mapy.


METAR-TAF: